Newport, AR

2:35 AM CST on March 02, 2015 (GMT -0600)
Newport | Change Station
CLOSE
Current Station
Airport
Location: Newport,
Elevation: 240 ft
Nearby Weather Stations
Active Advisory: Flood Warning Active Notice: Record Report

Elev 240 ft 35.64 °N, 91.17 °W | Updated 39 minutes ago

Overcast
Overcast
35 °F
Feels Like 27 °F
N
10
Wind Variable Wind from North

Today
High -- | Low -- °F
--% Chance of Precip.
Yesterday
High -- | Low -- °F
Precip. -- in
6:33 AM 6:00 PM
Waxing Gibbous, 90% visible
Pressure 30.48 in
Visibility 10.0 miles
Clouds Overcast 1600 ft
Windchill 27 °F
Dew Point 32 °F
Humidity 89%
Rainfall 0.00 in
Snow Depth Not available.
UV 0 out of 12
Pollen 2.00 out of 12
Air Quality Not available.
Flu Activity Not available.
METAR KM19 020756Z AUTO 36009KT 10SM OVC016 02/00 A3048 RMK AO2 T00160000 SLP321

More Conditions Fewer Conditions

Pressure 30.48 in
Visibility 10.0 miles
Clouds Overcast 1600 ft
Windchill 27 °F
Dew Point 32 °F
Humidity 89%
Rainfall 0.00 in
Snow Depth Not available.
UV 0 out of 12
Pollen 2.00 out of 12
Air Quality Not available.
Flu Activity Not available.
METAR KM19 020756Z AUTO 36009KT 10SM OVC016 02/00 A3048 RMK AO2 T00160000 SLP321

More Conditions Fewer Conditions

10-Day Weather Forecast

Almanac

Astronomy

Mar. 02, 2015 Rise Set
Actual Time
Civil Twilight
Nautical Twilight
Astronomical Twilight
Moon
Length of Visible Light
Length of Day
Tomorrow will be .
, % of the Moon is Illuminated

Today's Extremes

State Highs State Lows

Community

WunderPhotos

Upload Photos

1,801,751 photos uploaded!

WunderBlogs® & News

Nearby

Air Quality

  Air Quality AQ Index Pollutant
Not available.

Snow Depth

Station Depth Elevation

Earthquake Activity

City Distance Mag. Time & Date
Minimum magnitude displayed is 2.5.

Coastal Water Temperatures

Place Temperature

Nearby Weather Stations

Flood Warning
Statement as of 8:49 PM CST on March 01, 2015

The Flood Warning continues for
the Cache River near Patterson.
* Until further notice... or until the warning is cancelled.
* At 8:00 PM Sunday the stage was 10.1 feet.
* Minor flooding is occurring and minor flooding is forecast.
* Flood stage is 8.0 feet.
* Forecast... the river will continue to fall to a stage of 10.0 feet
by Monday morning and will remain above flood stage for the next
7 days at least.
* Impacts at 10.0 feet... pastureland and cropland not protected by
levees in Jackson and Woodruff counties affected. Water is deep along
the shoulders of State Highway 18 near Grubbs. Water over portions of
Woodruff County Road 775 north of State Highway 260.

             Fld observed forecast 7 am
location stg stg day time Mon Tue Wed Thu Fri

Cache River
Patterson 8 10.1 sun 08 PM 10.0 9.8 9.6 9.5 9.4

Lat... Lon 3510 9133 3522 9128 3539 9123 3538 9113
3521 9117 3508 9122